sensor_id;sensor_type;location;lat;lon;timestamp;temperature;humidity
7002;DHT22;3541;53.230;10.518;2022-12-07T00:01:37;3.30;99.90
7002;DHT22;3541;53.230;10.518;2022-12-07T00:04:07;3.30;99.90
7002;DHT22;3541;53.230;10.518;2022-12-07T00:06:36;3.30;99.90
7002;DHT22;3541;53.230;10.518;2022-12-07T00:09:04;3.30;99.90
7002;DHT22;3541;53.230;10.518;2022-12-07T00:11:31;3.30;99.90
7002;DHT22;3541;53.230;10.518;2022-12-07T00:14:00;3.40;99.90
7002;DHT22;3541;53.230;10.518;2022-12-07T00:16:29;3.30;99.90
7002;DHT22;3541;53.230;10.518;2022-12-07T00:18:56;3.50;99.90
7002;DHT22;3541;53.230;10.518;2022-12-07T00:21:26;3.50;99.90
7002;DHT22;3541;53.230;10.518;2022-12-07T00:23:55;3.50;99.90
7002;DHT22;3541;53.230;10.518;2022-12-07T00:26:23;3.50;99.90
7002;DHT22;3541;53.230;10.518;2022-12-07T00:28:52;3.50;99.90
7002;DHT22;3541;53.230;10.518;2022-12-07T00:31:21;3.60;99.90
7002;DHT22;3541;53.230;10.518;2022-12-07T00:33:48;3.50;99.90
7002;DHT22;3541;53.230;10.518;2022-12-07T00:36:15;3.60;99.90
7002;DHT22;3541;53.230;10.518;2022-12-07T00:38:44;3.60;99.90
7002;DHT22;3541;53.230;10.518;2022-12-07T00:41:12;3.60;99.90
7002;DHT22;3541;53.230;10.518;2022-12-07T00:43:40;3.60;99.90
7002;DHT22;3541;53.230;10.518;2022-12-07T00:46:07;3.50;99.90
7002;DHT22;3541;53.230;10.518;2022-12-07T00:48:34;3.50;99.90
7002;DHT22;3541;53.230;10.518;2022-12-07T00:51:01;3.60;99.90
7002;DHT22;3541;53.230;10.518;2022-12-07T00:53:28;3.60;99.90
7002;DHT22;3541;53.230;10.518;2022-12-07T00:55:56;3.70;99.90
7002;DHT22;3541;53.230;10.518;2022-12-07T00:58:23;3.70;99.90
7002;DHT22;3541;53.230;10.518;2022-12-07T01:00:50;3.70;99.90
7002;DHT22;3541;53.230;10.518;2022-12-07T01:03:17;3.70;99.90
7002;DHT22;3541;53.230;10.518;2022-12-07T01:05:50;3.70;99.90
7002;DHT22;3541;53.230;10.518;2022-12-07T01:08:17;3.80;99.90
7002;DHT22;3541;53.230;10.518;2022-12-07T01:10:43;3.80;99.90
7002;DHT22;3541;53.230;10.518;2022-12-07T01:13:11;3.90;99.90
7002;DHT22;3541;53.230;10.518;2022-12-07T01:15:39;3.90;99.90
7002;DHT22;3541;53.230;10.518;2022-12-07T01:18:05;3.80;99.90
7002;DHT22;3541;53.230;10.518;2022-12-07T01:20:32;3.80;99.90
7002;DHT22;3541;53.230;10.518;2022-12-07T01:22:59;3.80;99.90
7002;DHT22;3541;53.230;10.518;2022-12-07T01:25:25;3.80;99.90
7002;DHT22;3541;53.230;10.518;2022-12-07T01:27:52;3.80;99.90
7002;DHT22;3541;53.230;10.518;2022-12-07T01:30:20;3.80;99.90
7002;DHT22;3541;53.230;10.518;2022-12-07T01:32:47;3.90;99.90
7002;DHT22;3541;53.230;10.518;2022-12-07T01:35:13;3.80;99.90
7002;DHT22;3541;53.230;10.518;2022-12-07T01:37:40;3.70;99.90
7002;DHT22;3541;53.230;10.518;2022-12-07T01:40:08;3.80;99.90
7002;DHT22;3541;53.230;10.518;2022-12-07T01:42:34;3.70;99.90
7002;DHT22;3541;53.230;10.518;2022-12-07T01:45:37;3.70;99.90
7002;DHT22;3541;53.230;10.518;2022-12-07T01:48:05;3.70;99.90
7002;DHT22;3541;53.230;10.518;2022-12-07T01:50:34;3.70;99.90
7002;DHT22;3541;53.230;10.518;2022-12-07T01:53:03;3.70;99.90
7002;DHT22;3541;53.230;10.518;2022-12-07T01:55:31;3.70;99.90
7002;DHT22;3541;53.230;10.518;2022-12-07T01:57:58;3.80;99.90
7002;DHT22;3541;53.230;10.518;2022-12-07T02:00:24;3.70;99.90
7002;DHT22;3541;53.230;10.518;2022-12-07T02:02:57;3.80;99.90
7002;DHT22;3541;53.230;10.518;2022-12-07T02:05:26;3.80;99.90
7002;DHT22;3541;53.230;10.518;2022-12-07T02:07:55;3.80;99.90
7002;DHT22;3541;53.230;10.518;2022-12-07T02:10:25;3.90;99.90
7002;DHT22;3541;53.230;10.518;2022-12-07T02:12:56;3.90;99.90
7002;DHT22;3541;53.230;10.518;2022-12-07T02:15:29;3.80;99.90
7002;DHT22;3541;53.230;10.518;2022-12-07T02:18:03;3.80;99.90
7002;DHT22;3541;53.230;10.518;2022-12-07T02:20:36;3.90;99.90
7002;DHT22;3541;53.230;10.518;2022-12-07T02:23:32;3.90;99.90
7002;DHT22;3541;53.230;10.518;2022-12-07T02:26:17;3.90;99.90
7002;DHT22;3541;53.230;10.518;2022-12-07T02:28:58;3.80;99.90
7002;DHT22;3541;53.230;10.518;2022-12-07T02:31:28;3.80;99.90
7002;DHT22;3541;53.230;10.518;2022-12-07T02:34:04;3.90;99.90
7002;DHT22;3541;53.230;10.518;2022-12-07T02:36:36;3.90;99.90
7002;DHT22;3541;53.230;10.518;2022-12-07T02:39:08;3.80;99.90
7002;DHT22;3541;53.230;10.518;2022-12-07T02:41:42;3.90;99.90
7002;DHT22;3541;53.230;10.518;2022-12-07T02:44:14;3.90;99.90
7002;DHT22;3541;53.230;10.518;2022-12-07T02:46:44;3.90;99.90
7002;DHT22;3541;53.230;10.518;2022-12-07T02:49:13;3.90;99.90
7002;DHT22;3541;53.230;10.518;2022-12-07T02:51:42;3.90;99.90
7002;DHT22;3541;53.230;10.518;2022-12-07T02:54:12;3.90;99.90
7002;DHT22;3541;53.230;10.518;2022-12-07T02:56:45;3.90;99.90
7002;DHT22;3541;53.230;10.518;2022-12-07T02:59:22;3.90;99.90
7002;DHT22;3541;53.230;10.518;2022-12-07T03:01:58;4.00;99.90
7002;DHT22;3541;53.230;10.518;2022-12-07T03:04:41;4.00;99.90
7002;DHT22;3541;53.230;10.518;2022-12-07T03:07:15;4.10;99.90
7002;DHT22;3541;53.230;10.518;2022-12-07T03:09:48;4.10;99.90
7002;DHT22;3541;53.230;10.518;2022-12-07T03:12:20;4.10;99.90
7002;DHT22;3541;53.230;10.518;2022-12-07T03:14:55;4.00;99.90
7002;DHT22;3541;53.230;10.518;2022-12-07T03:17:26;4.00;99.90
7002;DHT22;3541;53.230;10.518;2022-12-07T03:19:58;4.00;99.90
7002;DHT22;3541;53.230;10.518;2022-12-07T03:22:29;4.00;99.90
7002;DHT22;3541;53.230;10.518;2022-12-07T03:24:59;4.00;99.90
7002;DHT22;3541;53.230;10.518;2022-12-07T03:27:30;3.90;99.90
7002;DHT22;3541;53.230;10.518;2022-12-07T03:30:03;3.90;99.90
7002;DHT22;3541;53.230;10.518;2022-12-07T03:32:34;4.00;99.90
7002;DHT22;3541;53.230;10.518;2022-12-07T03:35:07;4.00;99.90
7002;DHT22;3541;53.230;10.518;2022-12-07T03:37:39;4.00;99.90
7002;DHT22;3541;53.230;10.518;2022-12-07T03:40:13;4.00;99.90
7002;DHT22;3541;53.230;10.518;2022-12-07T03:42:41;4.00;99.90
7002;DHT22;3541;53.230;10.518;2022-12-07T03:45:10;3.90;99.90
7002;DHT22;3541;53.230;10.518;2022-12-07T03:47:43;3.90;99.90
7002;DHT22;3541;53.230;10.518;2022-12-07T03:50:16;3.90;99.90
7002;DHT22;3541;53.230;10.518;2022-12-07T03:52:49;3.90;99.90
7002;DHT22;3541;53.230;10.518;2022-12-07T03:55:20;3.90;99.90
7002;DHT22;3541;53.230;10.518;2022-12-07T03:57:52;3.90;99.90
7002;DHT22;3541;53.230;10.518;2022-12-07T04:00:22;3.90;99.90
7002;DHT22;3541;53.230;10.518;2022-12-07T04:02:51;3.80;99.90
7002;DHT22;3541;53.230;10.518;2022-12-07T04:05:18;3.80;99.90
7002;DHT22;3541;53.230;10.518;2022-12-07T04:07:45;3.90;99.90
7002;DHT22;3541;53.230;10.518;2022-12-07T04:10:12;3.90;99.90
7002;DHT22;3541;53.230;10.518;2022-12-07T04:12:38;3.90;99.90
7002;DHT22;3541;53.230;10.518;2022-12-07T04:15:06;3.90;99.90
7002;DHT22;3541;53.230;10.518;2022-12-07T04:17:35;3.80;99.90
7002;DHT22;3541;53.230;10.518;2022-12-07T04:20:02;3.80;99.90
7002;DHT22;3541;53.230;10.518;2022-12-07T04:22:29;3.80;99.90
7002;DHT22;3541;53.230;10.518;2022-12-07T04:24:56;3.70;99.90
7002;DHT22;3541;53.230;10.518;2022-12-07T04:27:22;3.70;99.90
7002;DHT22;3541;53.230;10.518;2022-12-07T04:29:49;3.70;99.90
7002;DHT22;3541;53.230;10.518;2022-12-07T04:32:15;3.70;99.90
7002;DHT22;3541;53.230;10.518;2022-12-07T04:34:43;3.70;99.90
7002;DHT22;3541;53.230;10.518;2022-12-07T04:37:10;3.70;99.90
7002;DHT22;3541;53.230;10.518;2022-12-07T04:39:36;3.80;99.90
7002;DHT22;3541;53.230;10.518;2022-12-07T04:42:03;3.80;99.90
7002;DHT22;3541;53.230;10.518;2022-12-07T04:44:30;3.80;99.90
7002;DHT22;3541;53.230;10.518;2022-12-07T04:46:57;3.70;99.90
7002;DHT22;3541;53.230;10.518;2022-12-07T04:49:24;3.70;99.90
7002;DHT22;3541;53.230;10.518;2022-12-07T04:51:52;3.60;99.90
7002;DHT22;3541;53.230;10.518;2022-12-07T04:54:19;3.50;99.90
7002;DHT22;3541;53.230;10.518;2022-12-07T04:56:46;3.50;99.90
7002;DHT22;3541;53.230;10.518;2022-12-07T04:59:13;3.50;99.90
7002;DHT22;3541;53.230;10.518;2022-12-07T05:01:40;3.60;99.90
7002;DHT22;3541;53.230;10.518;2022-12-07T05:04:07;3.60;99.90
7002;DHT22;3541;53.230;10.518;2022-12-07T05:06:33;3.70;99.90
7002;DHT22;3541;53.230;10.518;2022-12-07T05:09:03;3.70;99.90
7002;DHT22;3541;53.230;10.518;2022-12-07T05:11:30;3.60;99.90
7002;DHT22;3541;53.230;10.518;2022-12-07T05:14:08;3.60;99.90
7002;DHT22;3541;53.230;10.518;2022-12-07T05:16:35;3.70;99.90
7002;DHT22;3541;53.230;10.518;2022-12-07T05:19:01;3.60;99.90
7002;DHT22;3541;53.230;10.518;2022-12-07T05:21:28;3.50;99.90
7002;DHT22;3541;53.230;10.518;2022-12-07T05:23:55;3.50;99.90
7002;DHT22;3541;53.230;10.518;2022-12-07T05:26:22;3.50;99.90
7002;DHT22;3541;53.230;10.518;2022-12-07T05:28:51;3.60;99.90
7002;DHT22;3541;53.230;10.518;2022-12-07T05:31:18;3.50;99.90
7002;DHT22;3541;53.230;10.518;2022-12-07T05:33:44;3.50;99.90
7002;DHT22;3541;53.230;10.518;2022-12-07T05:36:11;3.40;99.90
7002;DHT22;3541;53.230;10.518;2022-12-07T05:38:39;3.40;99.90
7002;DHT22;3541;53.230;10.518;2022-12-07T05:41:06;3.30;99.90
7002;DHT22;3541;53.230;10.518;2022-12-07T05:43:55;3.30;99.90
7002;DHT22;3541;53.230;10.518;2022-12-07T05:46:21;3.30;99.90
7002;DHT22;3541;53.230;10.518;2022-12-07T05:48:48;3.40;99.90
7002;DHT22;3541;53.230;10.518;2022-12-07T05:51:14;3.40;99.90
7002;DHT22;3541;53.230;10.518;2022-12-07T05:53:41;3.30;99.90
7002;DHT22;3541;53.230;10.518;2022-12-07T05:56:07;3.30;99.90
7002;DHT22;3541;53.230;10.518;2022-12-07T05:58:34;3.40;99.90
7002;DHT22;3541;53.230;10.518;2022-12-07T06:01:19;3.30;99.90
7002;DHT22;3541;53.230;10.518;2022-12-07T06:03:46;3.30;99.90
7002;DHT22;3541;53.230;10.518;2022-12-07T06:06:13;3.30;99.90
7002;DHT22;3541;53.230;10.518;2022-12-07T06:08:39;3.30;99.90
7002;DHT22;3541;53.230;10.518;2022-12-07T06:11:06;3.20;99.90
7002;DHT22;3541;53.230;10.518;2022-12-07T06:13:50;3.20;99.90
7002;DHT22;3541;53.230;10.518;2022-12-07T06:16:16;3.20;99.90
7002;DHT22;3541;53.230;10.518;2022-12-07T06:18:44;3.10;99.90
7002;DHT22;3541;53.230;10.518;2022-12-07T06:21:11;3.00;99.90
7002;DHT22;3541;53.230;10.518;2022-12-07T06:23:37;3.00;99.90
7002;DHT22;3541;53.230;10.518;2022-12-07T06:26:04;3.00;99.90
7002;DHT22;3541;53.230;10.518;2022-12-07T06:28:31;3.10;99.90
7002;DHT22;3541;53.230;10.518;2022-12-07T06:30:57;3.00;99.90
7002;DHT22;3541;53.230;10.518;2022-12-07T06:33:25;3.00;99.90
7002;DHT22;3541;53.230;10.518;2022-12-07T06:35:53;3.00;99.90
7002;DHT22;3541;53.230;10.518;2022-12-07T06:38:19;3.00;99.90
7002;DHT22;3541;53.230;10.518;2022-12-07T06:40:46;3.00;99.90
7002;DHT22;3541;53.230;10.518;2022-12-07T06:43:13;3.00;99.90
7002;DHT22;3541;53.230;10.518;2022-12-07T06:45:40;3.00;99.90
7002;DHT22;3541;53.230;10.518;2022-12-07T06:48:07;2.80;99.90
7002;DHT22;3541;53.230;10.518;2022-12-07T06:50:33;2.90;99.90
7002;DHT22;3541;53.230;10.518;2022-12-07T06:53:01;2.90;99.90
7002;DHT22;3541;53.230;10.518;2022-12-07T06:55:28;2.80;99.90
7002;DHT22;3541;53.230;10.518;2022-12-07T06:57:54;2.80;99.90
7002;DHT22;3541;53.230;10.518;2022-12-07T07:00:21;3.00;99.90
7002;DHT22;3541;53.230;10.518;2022-12-07T07:02:48;2.90;99.90
7002;DHT22;3541;53.230;10.518;2022-12-07T07:05:15;2.90;99.90
7002;DHT22;3541;53.230;10.518;2022-12-07T07:07:42;3.00;99.90
7002;DHT22;3541;53.230;10.518;2022-12-07T07:10:10;2.90;99.90
7002;DHT22;3541;53.230;10.518;2022-12-07T07:12:36;2.90;99.90
7002;DHT22;3541;53.230;10.518;2022-12-07T07:15:04;2.90;99.90
7002;DHT22;3541;53.230;10.518;2022-12-07T07:17:30;2.80;99.90
7002;DHT22;3541;53.230;10.518;2022-12-07T07:19:57;2.80;99.90
7002;DHT22;3541;53.230;10.518;2022-12-07T07:22:24;2.80;99.90
7002;DHT22;3541;53.230;10.518;2022-12-07T07:24:50;2.70;99.90
7002;DHT22;3541;53.230;10.518;2022-12-07T07:27:18;2.80;99.90
7002;DHT22;3541;53.230;10.518;2022-12-07T07:29:45;2.80;99.90
7002;DHT22;3541;53.230;10.518;2022-12-07T07:32:11;2.90;99.90
7002;DHT22;3541;53.230;10.518;2022-12-07T07:34:39;2.90;99.90
7002;DHT22;3541;53.230;10.518;2022-12-07T07:37:05;2.90;99.90
7002;DHT22;3541;53.230;10.518;2022-12-07T07:39:32;2.80;99.90
7002;DHT22;3541;53.230;10.518;2022-12-07T07:41:59;2.90;99.90
7002;DHT22;3541;53.230;10.518;2022-12-07T07:44:26;2.90;99.90
7002;DHT22;3541;53.230;10.518;2022-12-07T07:46:53;2.90;99.90
7002;DHT22;3541;53.230;10.518;2022-12-07T07:49:20;2.90;99.90
7002;DHT22;3541;53.230;10.518;2022-12-07T07:51:46;2.90;99.90
7002;DHT22;3541;53.230;10.518;2022-12-07T07:54:13;3.00;99.90
7002;DHT22;3541;53.230;10.518;2022-12-07T07:56:40;2.90;99.90
7002;DHT22;3541;53.230;10.518;2022-12-07T07:59:06;3.00;99.90
7002;DHT22;3541;53.230;10.518;2022-12-07T08:01:34;3.00;99.90
7002;DHT22;3541;53.230;10.518;2022-12-07T08:04:01;2.80;99.90
7002;DHT22;3541;53.230;10.518;2022-12-07T08:06:28;3.00;99.90
7002;DHT22;3541;53.230;10.518;2022-12-07T08:08:54;3.10;99.90
7002;DHT22;3541;53.230;10.518;2022-12-07T08:11:23;3.10;99.90
7002;DHT22;3541;53.230;10.518;2022-12-07T08:13:49;3.10;99.90
7002;DHT22;3541;53.230;10.518;2022-12-07T08:16:16;3.10;99.90
7002;DHT22;3541;53.230;10.518;2022-12-07T08:18:44;3.20;99.90
7002;DHT22;3541;53.230;10.518;2022-12-07T08:21:12;3.20;99.90
7002;DHT22;3541;53.230;10.518;2022-12-07T08:23:40;3.20;99.90
7002;DHT22;3541;53.230;10.518;2022-12-07T08:26:08;3.20;99.90
7002;DHT22;3541;53.230;10.518;2022-12-07T08:28:35;3.10;99.90
7002;DHT22;3541;53.230;10.518;2022-12-07T08:31:02;3.10;99.90
7002;DHT22;3541;53.230;10.518;2022-12-07T08:33:29;3.20;99.90
7002;DHT22;3541;53.230;10.518;2022-12-07T08:36:01;3.20;99.90
7002;DHT22;3541;53.230;10.518;2022-12-07T08:38:28;3.10;99.90
7002;DHT22;3541;53.230;10.518;2022-12-07T08:40:54;3.20;99.90
7002;DHT22;3541;53.230;10.518;2022-12-07T08:43:22;3.30;99.90
7002;DHT22;3541;53.230;10.518;2022-12-07T08:45:52;3.30;99.90
7002;DHT22;3541;53.230;10.518;2022-12-07T08:48:21;3.30;99.90
7002;DHT22;3541;53.230;10.518;2022-12-07T08:50:50;3.20;99.90
7002;DHT22;3541;53.230;10.518;2022-12-07T08:53:18;3.20;99.90
7002;DHT22;3541;53.230;10.518;2022-12-07T08:55:46;3.20;99.90
7002;DHT22;3541;53.230;10.518;2022-12-07T08:58:13;3.20;99.90
7002;DHT22;3541;53.230;10.518;2022-12-07T09:00:39;3.30;99.90
7002;DHT22;3541;53.230;10.518;2022-12-07T09:03:06;3.30;99.90
7002;DHT22;3541;53.230;10.518;2022-12-07T09:05:33;3.20;99.90
7002;DHT22;3541;53.230;10.518;2022-12-07T09:08:01;3.40;99.90
7002;DHT22;3541;53.230;10.518;2022-12-07T09:10:29;3.30;99.90
7002;DHT22;3541;53.230;10.518;2022-12-07T09:12:56;3.30;99.90
7002;DHT22;3541;53.230;10.518;2022-12-07T09:15:26;3.40;99.90
7002;DHT22;3541;53.230;10.518;2022-12-07T09:17:52;3.50;99.90
7002;DHT22;3541;53.230;10.518;2022-12-07T09:20:19;3.60;99.90
7002;DHT22;3541;53.230;10.518;2022-12-07T09:22:45;3.60;99.90
7002;DHT22;3541;53.230;10.518;2022-12-07T09:25:12;3.60;99.90
7002;DHT22;3541;53.230;10.518;2022-12-07T09:27:40;3.50;99.90
7002;DHT22;3541;53.230;10.518;2022-12-07T09:30:08;3.50;99.90
7002;DHT22;3541;53.230;10.518;2022-12-07T09:32:34;3.50;99.90
7002;DHT22;3541;53.230;10.518;2022-12-07T09:35:02;3.50;99.90
7002;DHT22;3541;53.230;10.518;2022-12-07T09:37:28;3.60;99.90
7002;DHT22;3541;53.230;10.518;2022-12-07T09:39:57;3.70;99.90
7002;DHT22;3541;53.230;10.518;2022-12-07T09:42:29;3.70;99.90
7002;DHT22;3541;53.230;10.518;2022-12-07T09:44:59;3.70;99.90
7002;DHT22;3541;53.230;10.518;2022-12-07T09:47:27;3.80;99.90
7002;DHT22;3541;53.230;10.518;2022-12-07T09:49:57;3.80;99.90
7002;DHT22;3541;53.230;10.518;2022-12-07T09:52:27;3.80;99.90
7002;DHT22;3541;53.230;10.518;2022-12-07T09:54:55;3.80;99.90
7002;DHT22;3541;53.230;10.518;2022-12-07T09:57:28;3.90;99.90
7002;DHT22;3541;53.230;10.518;2022-12-07T09:59:55;3.90;99.90
7002;DHT22;3541;53.230;10.518;2022-12-07T10:02:36;3.90;99.90
7002;DHT22;3541;53.230;10.518;2022-12-07T10:05:05;3.90;99.90
7002;DHT22;3541;53.230;10.518;2022-12-07T10:07:32;4.00;99.90
7002;DHT22;3541;53.230;10.518;2022-12-07T10:09:59;3.90;99.90
7002;DHT22;3541;53.230;10.518;2022-12-07T10:12:25;3.90;99.90
7002;DHT22;3541;53.230;10.518;2022-12-07T10:14:55;4.00;99.90
7002;DHT22;3541;53.230;10.518;2022-12-07T10:17:35;3.90;99.90
7002;DHT22;3541;53.230;10.518;2022-12-07T10:20:22;3.90;99.90
7002;DHT22;3541;53.230;10.518;2022-12-07T10:22:57;3.90;99.90
7002;DHT22;3541;53.230;10.518;2022-12-07T10:25:27;3.90;99.90
7002;DHT22;3541;53.230;10.518;2022-12-07T10:28:01;4.00;99.90
7002;DHT22;3541;53.230;10.518;2022-12-07T10:30:28;4.10;99.90
7002;DHT22;3541;53.230;10.518;2022-12-07T10:32:57;4.10;99.90
7002;DHT22;3541;53.230;10.518;2022-12-07T10:35:26;4.00;99.90
7002;DHT22;3541;53.230;10.518;2022-12-07T10:37:54;4.00;99.90
7002;DHT22;3541;53.230;10.518;2022-12-07T10:40:31;3.90;99.90
7002;DHT22;3541;53.230;10.518;2022-12-07T10:43:13;4.00;99.90
7002;DHT22;3541;53.230;10.518;2022-12-07T10:45:54;3.90;99.90
7002;DHT22;3541;53.230;10.518;2022-12-07T10:48:32;4.00;99.90
7002;DHT22;3541;53.230;10.518;2022-12-07T10:51:06;4.10;99.90
7002;DHT22;3541;53.230;10.518;2022-12-07T10:53:47;4.10;99.90
7002;DHT22;3541;53.230;10.518;2022-12-07T10:56:28;4.10;99.90
7002;DHT22;3541;53.230;10.518;2022-12-07T10:59:12;4.00;99.90
7002;DHT22;3541;53.230;10.518;2022-12-07T11:01:45;4.10;99.90
7002;DHT22;3541;53.230;10.518;2022-12-07T11:04:27;4.10;99.90
7002;DHT22;3541;53.230;10.518;2022-12-07T11:07:00;4.20;99.90
7002;DHT22;3541;53.230;10.518;2022-12-07T11:09:49;4.30;99.90
7002;DHT22;3541;53.230;10.518;2022-12-07T11:12:29;4.30;99.90
7002;DHT22;3541;53.230;10.518;2022-12-07T11:15:03;4.30;99.90
7002;DHT22;3541;53.230;10.518;2022-12-07T11:17:35;4.30;99.90
7002;DHT22;3541;53.230;10.518;2022-12-07T11:20:15;4.40;99.90
7002;DHT22;3541;53.230;10.518;2022-12-07T11:22:51;4.40;99.90
7002;DHT22;3541;53.230;10.518;2022-12-07T11:25:31;4.30;99.90
7002;DHT22;3541;53.230;10.518;2022-12-07T11:28:10;4.30;99.90
7002;DHT22;3541;53.230;10.518;2022-12-07T11:30:50;4.30;99.90
7002;DHT22;3541;53.230;10.518;2022-12-07T11:33:21;4.30;99.90
7002;DHT22;3541;53.230;10.518;2022-12-07T11:36:05;4.20;99.90
7002;DHT22;3541;53.230;10.518;2022-12-07T11:38:41;4.20;99.90
7002;DHT22;3541;53.230;10.518;2022-12-07T11:41:09;4.20;99.90
7002;DHT22;3541;53.230;10.518;2022-12-07T11:43:49;4.20;99.90
7002;DHT22;3541;53.230;10.518;2022-12-07T11:46:17;4.40;99.90
7002;DHT22;3541;53.230;10.518;2022-12-07T11:48:47;4.30;99.90
7002;DHT22;3541;53.230;10.518;2022-12-07T11:51:21;4.30;99.90
7002;DHT22;3541;53.230;10.518;2022-12-07T11:53:52;4.30;99.90
7002;DHT22;3541;53.230;10.518;2022-12-07T11:56:22;4.40;99.90
7002;DHT22;3541;53.230;10.518;2022-12-07T11:58:55;4.30;99.90
7002;DHT22;3541;53.230;10.518;2022-12-07T12:01:32;4.40;99.90
7002;DHT22;3541;53.230;10.518;2022-12-07T12:04:06;4.40;99.90
7002;DHT22;3541;53.230;10.518;2022-12-07T12:06:42;4.40;99.90
7002;DHT22;3541;53.230;10.518;2022-12-07T12:09:12;4.20;99.90
7002;DHT22;3541;53.230;10.518;2022-12-07T12:11:50;4.30;99.90
7002;DHT22;3541;53.230;10.518;2022-12-07T12:14:33;4.30;99.90
7002;DHT22;3541;53.230;10.518;2022-12-07T12:17:27;4.30;99.90
7002;DHT22;3541;53.230;10.518;2022-12-07T12:20:01;4.30;99.90
7002;DHT22;3541;53.230;10.518;2022-12-07T12:22:35;4.30;99.90
7002;DHT22;3541;53.230;10.518;2022-12-07T12:25:05;4.30;99.90
7002;DHT22;3541;53.230;10.518;2022-12-07T12:27:34;4.20;99.90
7002;DHT22;3541;53.230;10.518;2022-12-07T12:30:04;4.20;99.90
7002;DHT22;3541;53.230;10.518;2022-12-07T12:32:38;4.20;99.90
7002;DHT22;3541;53.230;10.518;2022-12-07T12:35:29;4.30;99.90
7002;DHT22;3541;53.230;10.518;2022-12-07T12:38:30;4.30;99.90
7002;DHT22;3541;53.230;10.518;2022-12-07T12:40:58;4.40;99.90
7002;DHT22;3541;53.230;10.518;2022-12-07T12:43:49;4.40;99.90
7002;DHT22;3541;53.230;10.518;2022-12-07T12:46:51;4.40;99.90
7002;DHT22;3541;53.230;10.518;2022-12-07T12:49:42;4.40;99.90
7002;DHT22;3541;53.230;10.518;2022-12-07T12:52:49;4.40;99.90
7002;DHT22;3541;53.230;10.518;2022-12-07T12:55:22;4.40;99.90
7002;DHT22;3541;53.230;10.518;2022-12-07T13:04:23;4.60;99.90
7002;DHT22;3541;53.230;10.518;2022-12-07T13:06:51;4.50;99.90
7002;DHT22;3541;53.230;10.518;2022-12-07T13:09:21;4.50;99.90
7002;DHT22;3541;53.230;10.518;2022-12-07T13:11:57;4.50;99.90
7002;DHT22;3541;53.230;10.518;2022-12-07T13:14:52;4.50;99.90
7002;DHT22;3541;53.230;10.518;2022-12-07T13:20:43;4.30;99.90
7002;DHT22;3541;53.230;10.518;2022-12-07T13:23:10;4.30;99.90
7002;DHT22;3541;53.230;10.518;2022-12-07T13:25:46;4.20;99.90
7002;DHT22;3541;53.230;10.518;2022-12-07T13:28:17;4.30;99.90
7002;DHT22;3541;53.230;10.518;2022-12-07T13:30:48;4.30;99.90
7002;DHT22;3541;53.230;10.518;2022-12-07T13:33:18;4.20;99.90
7002;DHT22;3541;53.230;10.518;2022-12-07T13:35:45;4.20;99.90
7002;DHT22;3541;53.230;10.518;2022-12-07T13:38:23;4.20;99.90
7002;DHT22;3541;53.230;10.518;2022-12-07T13:43:52;4.40;99.90
7002;DHT22;3541;53.230;10.518;2022-12-07T13:46:24;4.30;99.90
7002;DHT22;3541;53.230;10.518;2022-12-07T13:48:53;4.40;99.90
7002;DHT22;3541;53.230;10.518;2022-12-07T13:51:23;4.40;99.90
7002;DHT22;3541;53.230;10.518;2022-12-07T13:53:52;4.50;99.90
7002;DHT22;3541;53.230;10.518;2022-12-07T13:56:21;4.50;99.90
7002;DHT22;3541;53.230;10.518;2022-12-07T13:58:50;4.50;99.90
7002;DHT22;3541;53.230;10.518;2022-12-07T14:01:16;4.60;99.90
7002;DHT22;3541;53.230;10.518;2022-12-07T14:03:43;4.70;99.90
7002;DHT22;3541;53.230;10.518;2022-12-07T14:06:20;4.50;99.90
7002;DHT22;3541;53.230;10.518;2022-12-07T14:08:48;4.50;99.90
7002;DHT22;3541;53.230;10.518;2022-12-07T14:11:17;4.40;99.90
7002;DHT22;3541;53.230;10.518;2022-12-07T14:13:56;4.30;99.90
7002;DHT22;3541;53.230;10.518;2022-12-07T14:16:27;4.40;99.90
7002;DHT22;3541;53.230;10.518;2022-12-07T14:18:55;4.40;99.90
7002;DHT22;3541;53.230;10.518;2022-12-07T14:21:23;4.40;99.90
7002;DHT22;3541;53.230;10.518;2022-12-07T14:24:09;4.30;99.90
7002;DHT22;3541;53.230;10.518;2022-12-07T14:26:37;4.20;99.90
7002;DHT22;3541;53.230;10.518;2022-12-07T14:29:31;4.20;99.90
7002;DHT22;3541;53.230;10.518;2022-12-07T14:32:18;4.20;99.90
7002;DHT22;3541;53.230;10.518;2022-12-07T14:35:00;4.10;99.90
7002;DHT22;3541;53.230;10.518;2022-12-07T14:37:29;4.10;99.90
7002;DHT22;3541;53.230;10.518;2022-12-07T14:39:56;4.10;99.90
7002;DHT22;3541;53.230;10.518;2022-12-07T14:42:26;4.10;99.90
7002;DHT22;3541;53.230;10.518;2022-12-07T14:44:55;4.20;99.90
7002;DHT22;3541;53.230;10.518;2022-12-07T14:47:22;4.10;99.90
7002;DHT22;3541;53.230;10.518;2022-12-07T14:49:48;4.00;99.90
7002;DHT22;3541;53.230;10.518;2022-12-07T14:52:18;4.00;99.90
7002;DHT22;3541;53.230;10.518;2022-12-07T14:54:46;4.00;99.90
7002;DHT22;3541;53.230;10.518;2022-12-07T14:57:12;4.10;99.90
7002;DHT22;3541;53.230;10.518;2022-12-07T14:59:39;4.00;99.90
7002;DHT22;3541;53.230;10.518;2022-12-07T15:02:10;4.00;99.90
7002;DHT22;3541;53.230;10.518;2022-12-07T15:04:37;4.10;99.90
7002;DHT22;3541;53.230;10.518;2022-12-07T15:07:05;4.10;99.90
7002;DHT22;3541;53.230;10.518;2022-12-07T15:09:32;4.00;99.90
7002;DHT22;3541;53.230;10.518;2022-12-07T15:11:59;4.10;99.90
7002;DHT22;3541;53.230;10.518;2022-12-07T15:14:26;4.00;99.90
7002;DHT22;3541;53.230;10.518;2022-12-07T15:16:52;4.10;99.90
7002;DHT22;3541;53.230;10.518;2022-12-07T15:19:22;4.00;99.90
7002;DHT22;3541;53.230;10.518;2022-12-07T15:21:51;3.90;99.90
7002;DHT22;3541;53.230;10.518;2022-12-07T15:24:18;4.00;99.90
7002;DHT22;3541;53.230;10.518;2022-12-07T15:26:44;3.80;99.90
7002;DHT22;3541;53.230;10.518;2022-12-07T15:29:11;3.90;99.90
7002;DHT22;3541;53.230;10.518;2022-12-07T15:31:40;3.90;99.90
7002;DHT22;3541;53.230;10.518;2022-12-07T15:34:07;3.90;99.90
7002;DHT22;3541;53.230;10.518;2022-12-07T15:36:35;3.80;99.90
7002;DHT22;3541;53.230;10.518;2022-12-07T15:39:02;3.80;99.90
7002;DHT22;3541;53.230;10.518;2022-12-07T15:41:28;3.80;99.90
7002;DHT22;3541;53.230;10.518;2022-12-07T15:43:55;3.70;99.90
7002;DHT22;3541;53.230;10.518;2022-12-07T15:46:40;3.60;99.90
7002;DHT22;3541;53.230;10.518;2022-12-07T15:49:10;3.70;99.90
7002;DHT22;3541;53.230;10.518;2022-12-07T15:51:39;3.70;99.90
7002;DHT22;3541;53.230;10.518;2022-12-07T15:54:06;3.80;99.90
7002;DHT22;3541;53.230;10.518;2022-12-07T15:56:32;3.80;99.90
7002;DHT22;3541;53.230;10.518;2022-12-07T15:58:59;3.80;99.90
7002;DHT22;3541;53.230;10.518;2022-12-07T16:01:25;3.80;99.90
7002;DHT22;3541;53.230;10.518;2022-12-07T16:03:52;3.80;99.90
7002;DHT22;3541;53.230;10.518;2022-12-07T16:06:19;3.70;99.90
7002;DHT22;3541;53.230;10.518;2022-12-07T16:08:47;3.70;99.90
7002;DHT22;3541;53.230;10.518;2022-12-07T16:11:14;3.60;99.90
7002;DHT22;3541;53.230;10.518;2022-12-07T16:13:40;3.70;99.90
7002;DHT22;3541;53.230;10.518;2022-12-07T16:16:10;3.60;99.90
7002;DHT22;3541;53.230;10.518;2022-12-07T16:18:38;3.70;99.90
7002;DHT22;3541;53.230;10.518;2022-12-07T16:21:04;3.70;99.90
7002;DHT22;3541;53.230;10.518;2022-12-07T16:23:31;3.80;99.90
7002;DHT22;3541;53.230;10.518;2022-12-07T16:26:05;3.50;99.90
7002;DHT22;3541;53.230;10.518;2022-12-07T16:28:32;3.60;99.90
7002;DHT22;3541;53.230;10.518;2022-12-07T16:31:03;3.60;99.90
7002;DHT22;3541;53.230;10.518;2022-12-07T16:33:32;3.60;99.90
7002;DHT22;3541;53.230;10.518;2022-12-07T16:35:58;3.70;99.90